KCEC/CEC METAR and TAF weather

Enter ICAO airport designator
Station Type Date Time Source
KCEC METAR 2021/05/10 23:56 UTC NOAA

KCEC 102356Z AUTO 34016G26KT 4SM HZ CLR 12/08 A3001 RMK AO2 PK WND 35031/2331 SLP164 T01220078 10139 20122 56011


Station Type Date Time Source
KCEC Decoded METAR 2021/05/10 23:56 UTC NOAA

CRESCENT CITY MC NAMARA, CA, United States (KCEC) 41-47N 124-14W
May 10, 2021 - 07:56 PM EDT / 2021.05.10 2356 UTC
Wind: from the NNW (340 degrees) at 18 MPH (16 KT) gusting to 30 MPH (26 KT):0
Visibility: 4 mile(s):0
Sky conditions: clear
Weather: haze
Temperature: 54.0 F (12.2 C)
Dew Point: 46.0 F (7.8 C)
Relative Humidity: 74%
Pressure (altimeter): 30.01 in. Hg (1016 hPa)
Pressure tendency: 0.03 inches (1.1 hPa) lower than three hours ago
ob: KCEC 102356Z AUTO 34016G26KT 4SM HZ CLR 12/08 A3001 RMK AO2 PK WND 35031/2331 SLP164 T01220078 10139 20122 56011
cycle: 0

Station Type Date Time Source
KCEC TAF 2021/05/10 18:39 UTC NOAA

TAF KCEC 101736Z 1018/1118 35018G29KT 4SM HZ FEW006
TEMPO 1020/1024 34024G34KT 6SM HZ
FM110600 35015G22KT 6SM HZ SKC
FM111000 36010G17KT 6SM HZ BR SKC
FM111700 35011KT 5SM HZ FEW005

Example: see airport list